sensor_id;sensor_type;location;lat;lon;timestamp;temperature;humidity
12015;DHT22;6066;48.138;16.402;2022-10-26T00:00:31;9.20;99.90
12015;DHT22;6066;48.138;16.402;2022-10-26T00:02:57;9.30;99.90
12015;DHT22;6066;48.138;16.402;2022-10-26T00:05:24;9.20;99.90
12015;DHT22;6066;48.138;16.402;2022-10-26T00:07:52;9.20;99.90
12015;DHT22;6066;48.138;16.402;2022-10-26T00:10:19;9.20;99.90
12015;DHT22;6066;48.138;16.402;2022-10-26T00:12:47;9.10;99.90
12015;DHT22;6066;48.138;16.402;2022-10-26T00:15:14;9.10;99.90
12015;DHT22;6066;48.138;16.402;2022-10-26T00:17:40;9.10;99.90
12015;DHT22;6066;48.138;16.402;2022-10-26T00:20:07;9.10;99.90
12015;DHT22;6066;48.138;16.402;2022-10-26T00:22:34;9.00;99.90
12015;DHT22;6066;48.138;16.402;2022-10-26T00:25:02;9.00;99.90
12015;DHT22;6066;48.138;16.402;2022-10-26T00:27:29;8.90;99.90
12015;DHT22;6066;48.138;16.402;2022-10-26T00:29:57;8.90;99.90
12015;DHT22;6066;48.138;16.402;2022-10-26T00:32:24;8.80;99.90
12015;DHT22;6066;48.138;16.402;2022-10-26T00:34:51;8.80;99.90
12015;DHT22;6066;48.138;16.402;2022-10-26T00:37:17;8.80;99.90
12015;DHT22;6066;48.138;16.402;2022-10-26T00:39:44;8.70;99.90
12015;DHT22;6066;48.138;16.402;2022-10-26T00:42:13;8.70;99.90
12015;DHT22;6066;48.138;16.402;2022-10-26T00:44:57;8.70;99.90
12015;DHT22;6066;48.138;16.402;2022-10-26T00:47:28;8.60;99.90
12015;DHT22;6066;48.138;16.402;2022-10-26T00:49:58;8.60;99.90
12015;DHT22;6066;48.138;16.402;2022-10-26T00:52:26;8.60;99.90
12015;DHT22;6066;48.138;16.402;2022-10-26T00:54:54;8.60;99.90
12015;DHT22;6066;48.138;16.402;2022-10-26T00:57:22;8.50;99.90
12015;DHT22;6066;48.138;16.402;2022-10-26T00:59:49;8.60;99.90
12015;DHT22;6066;48.138;16.402;2022-10-26T01:02:16;8.60;99.90
12015;DHT22;6066;48.138;16.402;2022-10-26T01:04:44;8.60;99.90
12015;DHT22;6066;48.138;16.402;2022-10-26T01:07:11;8.60;99.90
12015;DHT22;6066;48.138;16.402;2022-10-26T01:09:38;8.60;99.90
12015;DHT22;6066;48.138;16.402;2022-10-26T01:12:05;8.60;99.90
12015;DHT22;6066;48.138;16.402;2022-10-26T01:14:33;8.60;99.90
12015;DHT22;6066;48.138;16.402;2022-10-26T01:17:01;8.70;99.90
12015;DHT22;6066;48.138;16.402;2022-10-26T01:22:25;8.70;99.90
12015;DHT22;6066;48.138;16.402;2022-10-26T01:25:03;8.70;99.90
12015;DHT22;6066;48.138;16.402;2022-10-26T01:27:33;8.60;99.90
12015;DHT22;6066;48.138;16.402;2022-10-26T01:32:50;8.60;99.90
12015;DHT22;6066;48.138;16.402;2022-10-26T01:35:18;8.60;99.90
12015;DHT22;6066;48.138;16.402;2022-10-26T01:37:47;8.60;99.90
12015;DHT22;6066;48.138;16.402;2022-10-26T01:40:16;8.50;99.90
12015;DHT22;6066;48.138;16.402;2022-10-26T01:42:47;8.50;99.90
12015;DHT22;6066;48.138;16.402;2022-10-26T01:45:14;8.50;99.90
12015;DHT22;6066;48.138;16.402;2022-10-26T01:47:41;8.50;99.90
12015;DHT22;6066;48.138;16.402;2022-10-26T01:50:11;8.50;99.90
12015;DHT22;6066;48.138;16.402;2022-10-26T01:52:37;8.40;99.90
12015;DHT22;6066;48.138;16.402;2022-10-26T01:55:06;8.40;99.90
12015;DHT22;6066;48.138;16.402;2022-10-26T01:57:34;8.40;99.90
12015;DHT22;6066;48.138;16.402;2022-10-26T02:00:03;8.40;99.90
12015;DHT22;6066;48.138;16.402;2022-10-26T02:05:28;8.40;99.90
12015;DHT22;6066;48.138;16.402;2022-10-26T02:07:59;8.40;99.90
12015;DHT22;6066;48.138;16.402;2022-10-26T02:10:31;8.30;99.90
12015;DHT22;6066;48.138;16.402;2022-10-26T02:13:00;8.30;99.90
12015;DHT22;6066;48.138;16.402;2022-10-26T02:15:30;8.20;99.90
12015;DHT22;6066;48.138;16.402;2022-10-26T02:17:59;8.20;99.90
12015;DHT22;6066;48.138;16.402;2022-10-26T02:20:31;8.20;99.90
12015;DHT22;6066;48.138;16.402;2022-10-26T02:22:59;8.20;99.90
12015;DHT22;6066;48.138;16.402;2022-10-26T02:25:27;8.10;99.90
12015;DHT22;6066;48.138;16.402;2022-10-26T02:27:55;8.10;99.90
12015;DHT22;6066;48.138;16.402;2022-10-26T02:30:23;8.00;99.90
12015;DHT22;6066;48.138;16.402;2022-10-26T02:32:51;8.00;99.90
12015;DHT22;6066;48.138;16.402;2022-10-26T02:35:26;8.00;99.90
12015;DHT22;6066;48.138;16.402;2022-10-26T02:37:56;8.00;99.90
12015;DHT22;6066;48.138;16.402;2022-10-26T02:40:25;8.00;99.90
12015;DHT22;6066;48.138;16.402;2022-10-26T02:42:53;7.90;99.90
12015;DHT22;6066;48.138;16.402;2022-10-26T02:45:20;7.90;99.90
12015;DHT22;6066;48.138;16.402;2022-10-26T02:47:49;7.90;99.90
12015;DHT22;6066;48.138;16.402;2022-10-26T02:50:16;7.90;99.90
12015;DHT22;6066;48.138;16.402;2022-10-26T02:52:44;7.90;99.90
12015;DHT22;6066;48.138;16.402;2022-10-26T02:55:15;7.90;99.90
12015;DHT22;6066;48.138;16.402;2022-10-26T02:57:44;7.90;99.90
12015;DHT22;6066;48.138;16.402;2022-10-26T03:00:13;7.90;99.90
12015;DHT22;6066;48.138;16.402;2022-10-26T03:02:40;7.80;99.90
12015;DHT22;6066;48.138;16.402;2022-10-26T03:05:09;7.80;99.90
12015;DHT22;6066;48.138;16.402;2022-10-26T03:07:36;7.90;99.90
12015;DHT22;6066;48.138;16.402;2022-10-26T03:10:02;7.90;99.90
12015;DHT22;6066;48.138;16.402;2022-10-26T03:12:31;8.00;99.90
12015;DHT22;6066;48.138;16.402;2022-10-26T03:14:57;8.00;99.90
12015;DHT22;6066;48.138;16.402;2022-10-26T03:17:24;8.00;99.90
12015;DHT22;6066;48.138;16.402;2022-10-26T03:19:50;8.00;99.90
12015;DHT22;6066;48.138;16.402;2022-10-26T03:22:17;8.00;99.90
12015;DHT22;6066;48.138;16.402;2022-10-26T03:24:44;8.00;99.90
12015;DHT22;6066;48.138;16.402;2022-10-26T03:27:11;8.00;99.90
12015;DHT22;6066;48.138;16.402;2022-10-26T03:29:39;8.00;99.90
12015;DHT22;6066;48.138;16.402;2022-10-26T03:32:06;8.00;99.90
12015;DHT22;6066;48.138;16.402;2022-10-26T03:34:33;8.10;99.90
12015;DHT22;6066;48.138;16.402;2022-10-26T03:37:00;8.10;99.90
12015;DHT22;6066;48.138;16.402;2022-10-26T03:39:26;8.10;99.90
12015;DHT22;6066;48.138;16.402;2022-10-26T03:41:53;8.10;99.90
12015;DHT22;6066;48.138;16.402;2022-10-26T03:44:20;8.10;99.90
12015;DHT22;6066;48.138;16.402;2022-10-26T03:46:49;8.00;99.90
12015;DHT22;6066;48.138;16.402;2022-10-26T03:49:15;8.00;99.90
12015;DHT22;6066;48.138;16.402;2022-10-26T03:51:42;7.90;99.90
12015;DHT22;6066;48.138;16.402;2022-10-26T03:54:08;7.90;99.90
12015;DHT22;6066;48.138;16.402;2022-10-26T03:56:35;7.90;99.90
12015;DHT22;6066;48.138;16.402;2022-10-26T03:59:02;7.80;99.90
12015;DHT22;6066;48.138;16.402;2022-10-26T04:01:28;7.80;99.90
12015;DHT22;6066;48.138;16.402;2022-10-26T04:03:56;7.80;99.90
12015;DHT22;6066;48.138;16.402;2022-10-26T04:06:23;7.80;99.90
12015;DHT22;6066;48.138;16.402;2022-10-26T04:08:50;7.70;99.90
12015;DHT22;6066;48.138;16.402;2022-10-26T04:11:22;7.80;99.90
12015;DHT22;6066;48.138;16.402;2022-10-26T04:13:49;7.70;99.90
12015;DHT22;6066;48.138;16.402;2022-10-26T04:16:15;7.70;99.90
12015;DHT22;6066;48.138;16.402;2022-10-26T04:18:42;7.70;99.90
12015;DHT22;6066;48.138;16.402;2022-10-26T04:21:10;7.70;99.90
12015;DHT22;6066;48.138;16.402;2022-10-26T04:23:37;7.70;99.90
12015;DHT22;6066;48.138;16.402;2022-10-26T04:26:03;7.70;99.90
12015;DHT22;6066;48.138;16.402;2022-10-26T04:28:30;7.60;99.90
12015;DHT22;6066;48.138;16.402;2022-10-26T04:30:57;7.60;99.90
12015;DHT22;6066;48.138;16.402;2022-10-26T04:33:23;7.60;99.90
12015;DHT22;6066;48.138;16.402;2022-10-26T04:35:50;7.60;99.90
12015;DHT22;6066;48.138;16.402;2022-10-26T04:38:18;7.60;99.90
12015;DHT22;6066;48.138;16.402;2022-10-26T04:40:45;7.60;99.90
12015;DHT22;6066;48.138;16.402;2022-10-26T04:43:12;7.60;99.90
12015;DHT22;6066;48.138;16.402;2022-10-26T04:45:38;7.60;99.90
12015;DHT22;6066;48.138;16.402;2022-10-26T04:48:06;7.60;99.90
12015;DHT22;6066;48.138;16.402;2022-10-26T04:50:33;7.60;99.90
12015;DHT22;6066;48.138;16.402;2022-10-26T04:53:00;7.70;99.90
12015;DHT22;6066;48.138;16.402;2022-10-26T04:55:28;7.70;99.90
12015;DHT22;6066;48.138;16.402;2022-10-26T04:57:55;7.70;99.90
12015;DHT22;6066;48.138;16.402;2022-10-26T05:00:21;7.80;99.90
12015;DHT22;6066;48.138;16.402;2022-10-26T05:02:48;7.80;99.90
12015;DHT22;6066;48.138;16.402;2022-10-26T05:05:15;7.80;99.90
12015;DHT22;6066;48.138;16.402;2022-10-26T05:07:42;7.70;99.90
12015;DHT22;6066;48.138;16.402;2022-10-26T05:10:09;7.70;99.90
12015;DHT22;6066;48.138;16.402;2022-10-26T05:12:37;7.70;99.90
12015;DHT22;6066;48.138;16.402;2022-10-26T05:15:04;7.60;99.90
12015;DHT22;6066;48.138;16.402;2022-10-26T05:17:31;7.60;99.90
12015;DHT22;6066;48.138;16.402;2022-10-26T05:19:58;7.60;99.90
12015;DHT22;6066;48.138;16.402;2022-10-26T05:22:30;7.70;99.90
12015;DHT22;6066;48.138;16.402;2022-10-26T05:24:56;7.70;99.90
12015;DHT22;6066;48.138;16.402;2022-10-26T05:27:23;7.70;99.90
12015;DHT22;6066;48.138;16.402;2022-10-26T05:29:51;7.80;99.90
12015;DHT22;6066;48.138;16.402;2022-10-26T05:32:17;7.80;99.90
12015;DHT22;6066;48.138;16.402;2022-10-26T05:34:44;7.90;99.90
12015;DHT22;6066;48.138;16.402;2022-10-26T05:37:11;7.90;99.90
12015;DHT22;6066;48.138;16.402;2022-10-26T05:39:37;8.00;99.90
12015;DHT22;6066;48.138;16.402;2022-10-26T05:42:04;8.00;99.90
12015;DHT22;6066;48.138;16.402;2022-10-26T05:44:31;8.20;99.90
12015;DHT22;6066;48.138;16.402;2022-10-26T05:46:59;8.20;99.90
12015;DHT22;6066;48.138;16.402;2022-10-26T05:49:25;8.30;99.90
12015;DHT22;6066;48.138;16.402;2022-10-26T05:51:52;8.40;99.90
12015;DHT22;6066;48.138;16.402;2022-10-26T05:54:19;8.40;99.90
12015;DHT22;6066;48.138;16.402;2022-10-26T05:56:45;8.50;99.90
12015;DHT22;6066;48.138;16.402;2022-10-26T05:59:13;8.60;99.90
12015;DHT22;6066;48.138;16.402;2022-10-26T06:01:43;8.60;99.90
12015;DHT22;6066;48.138;16.402;2022-10-26T06:04:19;8.70;99.90
12015;DHT22;6066;48.138;16.402;2022-10-26T06:06:51;8.70;99.90
12015;DHT22;6066;48.138;16.402;2022-10-26T06:09:18;8.70;99.90
12015;DHT22;6066;48.138;16.402;2022-10-26T06:11:45;8.70;99.90
12015;DHT22;6066;48.138;16.402;2022-10-26T06:14:12;8.80;99.90
12015;DHT22;6066;48.138;16.402;2022-10-26T06:16:41;8.90;99.90
12015;DHT22;6066;48.138;16.402;2022-10-26T06:19:15;8.90;99.90
12015;DHT22;6066;48.138;16.402;2022-10-26T06:21:53;9.00;99.90
12015;DHT22;6066;48.138;16.402;2022-10-26T06:24:23;9.10;99.90
12015;DHT22;6066;48.138;16.402;2022-10-26T06:26:53;9.20;99.90
12015;DHT22;6066;48.138;16.402;2022-10-26T06:29:24;9.30;99.90
12015;DHT22;6066;48.138;16.402;2022-10-26T06:31:53;9.40;99.90
12015;DHT22;6066;48.138;16.402;2022-10-26T06:34:22;9.50;99.90
12015;DHT22;6066;48.138;16.402;2022-10-26T06:36:51;9.60;99.90
12015;DHT22;6066;48.138;16.402;2022-10-26T06:39:18;9.70;99.90
12015;DHT22;6066;48.138;16.402;2022-10-26T06:41:45;9.80;99.90
12015;DHT22;6066;48.138;16.402;2022-10-26T06:44:14;9.80;99.90
12015;DHT22;6066;48.138;16.402;2022-10-26T06:46:45;9.90;99.90
12015;DHT22;6066;48.138;16.402;2022-10-26T06:49:15;9.90;99.90
12015;DHT22;6066;48.138;16.402;2022-10-26T06:51:45;10.00;99.90
12015;DHT22;6066;48.138;16.402;2022-10-26T06:54:14;10.00;99.90
12015;DHT22;6066;48.138;16.402;2022-10-26T06:56:44;10.00;99.90
12015;DHT22;6066;48.138;16.402;2022-10-26T06:59:12;10.10;99.90
12015;DHT22;6066;48.138;16.402;2022-10-26T07:01:40;10.10;99.90
12015;DHT22;6066;48.138;16.402;2022-10-26T07:04:07;10.20;99.90
12015;DHT22;6066;48.138;16.402;2022-10-26T07:06:33;10.30;99.90
12015;DHT22;6066;48.138;16.402;2022-10-26T07:09:00;10.30;99.90
12015;DHT22;6066;48.138;16.402;2022-10-26T07:11:28;10.40;99.90
12015;DHT22;6066;48.138;16.402;2022-10-26T07:13:55;10.40;99.90
12015;DHT22;6066;48.138;16.402;2022-10-26T07:16:22;10.50;99.90
12015;DHT22;6066;48.138;16.402;2022-10-26T07:18:48;10.50;99.90
12015;DHT22;6066;48.138;16.402;2022-10-26T07:21:15;10.60;99.90
12015;DHT22;6066;48.138;16.402;2022-10-26T07:23:42;10.60;99.90
12015;DHT22;6066;48.138;16.402;2022-10-26T07:26:08;10.70;99.90
12015;DHT22;6066;48.138;16.402;2022-10-26T07:28:36;10.80;99.90
12015;DHT22;6066;48.138;16.402;2022-10-26T07:31:03;10.80;99.90
12015;DHT22;6066;48.138;16.402;2022-10-26T07:33:30;10.80;99.90
12015;DHT22;6066;48.138;16.402;2022-10-26T07:35:57;10.90;99.90
12015;DHT22;6066;48.138;16.402;2022-10-26T07:38:24;10.90;99.90
12015;DHT22;6066;48.138;16.402;2022-10-26T07:40:50;10.90;99.90
12015;DHT22;6066;48.138;16.402;2022-10-26T07:43:18;10.80;99.90
12015;DHT22;6066;48.138;16.402;2022-10-26T07:45:48;10.80;99.90
12015;DHT22;6066;48.138;16.402;2022-10-26T07:48:16;10.80;99.90
12015;DHT22;6066;48.138;16.402;2022-10-26T07:50:42;10.80;99.90
12015;DHT22;6066;48.138;16.402;2022-10-26T07:53:09;10.80;99.90
12015;DHT22;6066;48.138;16.402;2022-10-26T07:55:36;10.90;99.90
12015;DHT22;6066;48.138;16.402;2022-10-26T07:58:05;11.00;99.90
12015;DHT22;6066;48.138;16.402;2022-10-26T08:00:32;11.10;99.90
12015;DHT22;6066;48.138;16.402;2022-10-26T08:03:00;11.20;99.90
12015;DHT22;6066;48.138;16.402;2022-10-26T08:05:27;11.30;99.90
12015;DHT22;6066;48.138;16.402;2022-10-26T08:07:54;11.30;99.90
12015;DHT22;6066;48.138;16.402;2022-10-26T08:10:21;11.40;99.90
12015;DHT22;6066;48.138;16.402;2022-10-26T08:12:47;11.40;99.90
12015;DHT22;6066;48.138;16.402;2022-10-26T08:15:14;11.30;99.90
12015;DHT22;6066;48.138;16.402;2022-10-26T08:17:41;11.40;99.90
12015;DHT22;6066;48.138;16.402;2022-10-26T08:20:09;11.30;99.90
12015;DHT22;6066;48.138;16.402;2022-10-26T08:22:36;11.30;99.90
12015;DHT22;6066;48.138;16.402;2022-10-26T08:25:03;11.30;99.90
12015;DHT22;6066;48.138;16.402;2022-10-26T08:27:30;11.30;99.90
12015;DHT22;6066;48.138;16.402;2022-10-26T08:29:56;11.30;99.90
12015;DHT22;6066;48.138;16.402;2022-10-26T08:32:23;11.30;99.90
12015;DHT22;6066;48.138;16.402;2022-10-26T08:34:50;11.40;99.90
12015;DHT22;6066;48.138;16.402;2022-10-26T08:37:18;11.30;99.90
12015;DHT22;6066;48.138;16.402;2022-10-26T08:39:44;11.40;99.90
12015;DHT22;6066;48.138;16.402;2022-10-26T08:42:12;11.40;99.90
12015;DHT22;6066;48.138;16.402;2022-10-26T08:44:41;11.30;99.90
12015;DHT22;6066;48.138;16.402;2022-10-26T08:47:11;11.30;99.90
12015;DHT22;6066;48.138;16.402;2022-10-26T08:49:40;11.30;99.90
12015;DHT22;6066;48.138;16.402;2022-10-26T08:52:10;11.30;99.90
12015;DHT22;6066;48.138;16.402;2022-10-26T08:54:41;11.40;99.90
12015;DHT22;6066;48.138;16.402;2022-10-26T08:57:10;11.40;99.90
12015;DHT22;6066;48.138;16.402;2022-10-26T08:59:40;11.40;99.90
12015;DHT22;6066;48.138;16.402;2022-10-26T09:02:10;11.50;99.90
12015;DHT22;6066;48.138;16.402;2022-10-26T09:04:37;11.50;99.90
12015;DHT22;6066;48.138;16.402;2022-10-26T09:07:05;11.50;99.90
12015;DHT22;6066;48.138;16.402;2022-10-26T09:09:35;11.60;99.90
12015;DHT22;6066;48.138;16.402;2022-10-26T09:12:08;11.60;99.90
12015;DHT22;6066;48.138;16.402;2022-10-26T09:14:42;11.60;99.90
12015;DHT22;6066;48.138;16.402;2022-10-26T09:17:11;11.60;99.90
12015;DHT22;6066;48.138;16.402;2022-10-26T09:19:49;11.70;99.90
12015;DHT22;6066;48.138;16.402;2022-10-26T09:22:19;11.70;99.90
12015;DHT22;6066;48.138;16.402;2022-10-26T09:24:50;11.80;99.90
12015;DHT22;6066;48.138;16.402;2022-10-26T09:27:20;11.90;99.90
12015;DHT22;6066;48.138;16.402;2022-10-26T09:29:49;11.90;99.90
12015;DHT22;6066;48.138;16.402;2022-10-26T09:32:17;11.90;99.90
12015;DHT22;6066;48.138;16.402;2022-10-26T09:34:45;11.90;99.90
12015;DHT22;6066;48.138;16.402;2022-10-26T09:37:14;11.90;99.90
12015;DHT22;6066;48.138;16.402;2022-10-26T09:39:44;11.90;99.90
12015;DHT22;6066;48.138;16.402;2022-10-26T09:42:14;11.90;99.90
12015;DHT22;6066;48.138;16.402;2022-10-26T09:44:44;12.00;99.90
12015;DHT22;6066;48.138;16.402;2022-10-26T09:47:13;12.00;99.90
12015;DHT22;6066;48.138;16.402;2022-10-26T09:49:42;12.10;99.90
12015;DHT22;6066;48.138;16.402;2022-10-26T09:52:12;12.10;99.90
12015;DHT22;6066;48.138;16.402;2022-10-26T09:54:39;12.10;99.90
12015;DHT22;6066;48.138;16.402;2022-10-26T09:57:06;12.00;99.90
12015;DHT22;6066;48.138;16.402;2022-10-26T09:59:33;12.00;99.90
12015;DHT22;6066;48.138;16.402;2022-10-26T10:02:04;12.00;99.90
12015;DHT22;6066;48.138;16.402;2022-10-26T10:04:44;12.00;99.90
12015;DHT22;6066;48.138;16.402;2022-10-26T10:07:12;12.00;99.90
12015;DHT22;6066;48.138;16.402;2022-10-26T10:09:39;12.10;99.90
12015;DHT22;6066;48.138;16.402;2022-10-26T10:12:15;12.10;99.90
12015;DHT22;6066;48.138;16.402;2022-10-26T10:14:53;12.10;99.90
12015;DHT22;6066;48.138;16.402;2022-10-26T10:17:22;12.20;99.90
12015;DHT22;6066;48.138;16.402;2022-10-26T10:19:49;12.20;99.90
12015;DHT22;6066;48.138;16.402;2022-10-26T10:22:18;12.20;99.90
12015;DHT22;6066;48.138;16.402;2022-10-26T10:24:52;12.20;99.90
12015;DHT22;6066;48.138;16.402;2022-10-26T10:27:19;12.20;99.90
12015;DHT22;6066;48.138;16.402;2022-10-26T10:29:46;12.20;99.90
12015;DHT22;6066;48.138;16.402;2022-10-26T10:32:14;12.10;99.90
12015;DHT22;6066;48.138;16.402;2022-10-26T10:34:42;12.10;99.90
12015;DHT22;6066;48.138;16.402;2022-10-26T10:37:13;12.10;99.90
12015;DHT22;6066;48.138;16.402;2022-10-26T10:39:47;12.20;99.90
12015;DHT22;6066;48.138;16.402;2022-10-26T10:42:15;12.20;99.90
12015;DHT22;6066;48.138;16.402;2022-10-26T10:44:43;12.20;99.90
12015;DHT22;6066;48.138;16.402;2022-10-26T10:47:15;12.20;99.90
12015;DHT22;6066;48.138;16.402;2022-10-26T10:49:46;12.20;99.90
12015;DHT22;6066;48.138;16.402;2022-10-26T10:52:21;12.20;99.90
12015;DHT22;6066;48.138;16.402;2022-10-26T10:54:48;12.20;99.90
12015;DHT22;6066;48.138;16.402;2022-10-26T10:57:17;12.20;99.90
12015;DHT22;6066;48.138;16.402;2022-10-26T10:59:49;12.30;99.90
12015;DHT22;6066;48.138;16.402;2022-10-26T11:05:19;12.40;99.90
12015;DHT22;6066;48.138;16.402;2022-10-26T11:07:51;12.50;99.90
12015;DHT22;6066;48.138;16.402;2022-10-26T11:10:18;12.60;99.90
12015;DHT22;6066;48.138;16.402;2022-10-26T11:12:47;12.70;99.90
12015;DHT22;6066;48.138;16.402;2022-10-26T11:15:15;12.70;99.90
12015;DHT22;6066;48.138;16.402;2022-10-26T11:17:46;12.70;99.90
12015;DHT22;6066;48.138;16.402;2022-10-26T11:20:19;12.70;99.90
12015;DHT22;6066;48.138;16.402;2022-10-26T11:22:55;12.80;99.90
12015;DHT22;6066;48.138;16.402;2022-10-26T11:25:24;12.80;99.90
12015;DHT22;6066;48.138;16.402;2022-10-26T11:27:54;12.90;99.90
12015;DHT22;6066;48.138;16.402;2022-10-26T11:30:22;12.90;99.90
12015;DHT22;6066;48.138;16.402;2022-10-26T11:32:52;12.90;99.90
12015;DHT22;6066;48.138;16.402;2022-10-26T11:35:23;12.90;99.90
12015;DHT22;6066;48.138;16.402;2022-10-26T11:37:52;13.00;99.90
12015;DHT22;6066;48.138;16.402;2022-10-26T11:40:25;13.00;99.90
12015;DHT22;6066;48.138;16.402;2022-10-26T11:42:56;13.10;99.90
12015;DHT22;6066;48.138;16.402;2022-10-26T11:45:26;13.10;99.90
12015;DHT22;6066;48.138;16.402;2022-10-26T11:47:55;13.20;99.90
12015;DHT22;6066;48.138;16.402;2022-10-26T11:50:26;13.30;99.90
12015;DHT22;6066;48.138;16.402;2022-10-26T11:52:56;13.40;99.90
12015;DHT22;6066;48.138;16.402;2022-10-26T11:55:23;13.40;99.90
12015;DHT22;6066;48.138;16.402;2022-10-26T11:57:50;13.40;99.90
12015;DHT22;6066;48.138;16.402;2022-10-26T12:00:18;13.40;99.90
12015;DHT22;6066;48.138;16.402;2022-10-26T12:02:48;13.50;99.90
12015;DHT22;6066;48.138;16.402;2022-10-26T12:05:18;13.50;99.90
12015;DHT22;6066;48.138;16.402;2022-10-26T12:07:47;13.50;99.90
12015;DHT22;6066;48.138;16.402;2022-10-26T12:10:20;13.50;99.90
12015;DHT22;6066;48.138;16.402;2022-10-26T12:12:49;13.60;99.90
12015;DHT22;6066;48.138;16.402;2022-10-26T12:15:17;13.60;99.90
12015;DHT22;6066;48.138;16.402;2022-10-26T12:17:49;13.60;99.90
12015;DHT22;6066;48.138;16.402;2022-10-26T12:20:34;13.60;99.90
12015;DHT22;6066;48.138;16.402;2022-10-26T12:23:09;13.60;99.90
12015;DHT22;6066;48.138;16.402;2022-10-26T12:25:36;13.60;99.90
12015;DHT22;6066;48.138;16.402;2022-10-26T12:28:04;13.60;99.90
12015;DHT22;6066;48.138;16.402;2022-10-26T12:30:31;13.60;99.90
12015;DHT22;6066;48.138;16.402;2022-10-26T12:32:58;13.60;99.90
12015;DHT22;6066;48.138;16.402;2022-10-26T12:35:29;13.60;99.90
12015;DHT22;6066;48.138;16.402;2022-10-26T12:37:56;13.60;99.90
12015;DHT22;6066;48.138;16.402;2022-10-26T12:40:41;13.60;99.90
12015;DHT22;6066;48.138;16.402;2022-10-26T12:48:38;13.70;99.90
12015;DHT22;6066;48.138;16.402;2022-10-26T12:51:17;13.80;99.90
12015;DHT22;6066;48.138;16.402;2022-10-26T12:53:48;13.80;99.90
12015;DHT22;6066;48.138;16.402;2022-10-26T12:56:17;13.80;99.90
12015;DHT22;6066;48.138;16.402;2022-10-26T12:58:55;13.90;99.90
12015;DHT22;6066;48.138;16.402;2022-10-26T13:07:12;13.80;99.90
12015;DHT22;6066;48.138;16.402;2022-10-26T13:09:43;13.80;99.90
12015;DHT22;6066;48.138;16.402;2022-10-26T13:12:12;13.70;99.90
12015;DHT22;6066;48.138;16.402;2022-10-26T13:14:52;13.70;99.90
12015;DHT22;6066;48.138;16.402;2022-10-26T13:17:22;13.60;99.90
12015;DHT22;6066;48.138;16.402;2022-10-26T13:19:50;13.60;99.90
12015;DHT22;6066;48.138;16.402;2022-10-26T13:22:23;13.50;99.90
12015;DHT22;6066;48.138;16.402;2022-10-26T13:24:52;13.50;99.90
12015;DHT22;6066;48.138;16.402;2022-10-26T13:33:05;13.30;99.90
12015;DHT22;6066;48.138;16.402;2022-10-26T13:35:38;13.30;99.90
12015;DHT22;6066;48.138;16.402;2022-10-26T13:38:06;13.30;99.90
12015;DHT22;6066;48.138;16.402;2022-10-26T13:40:35;13.30;99.90
12015;DHT22;6066;48.138;16.402;2022-10-26T13:43:03;13.20;99.90
12015;DHT22;6066;48.138;16.402;2022-10-26T13:45:36;13.30;99.90
12015;DHT22;6066;48.138;16.402;2022-10-26T13:48:10;13.20;99.90
12015;DHT22;6066;48.138;16.402;2022-10-26T13:50:45;13.20;99.90
12015;DHT22;6066;48.138;16.402;2022-10-26T13:53:15;13.20;99.90
12015;DHT22;6066;48.138;16.402;2022-10-26T13:55:47;13.20;99.90
12015;DHT22;6066;48.138;16.402;2022-10-26T13:58:19;13.20;99.90
12015;DHT22;6066;48.138;16.402;2022-10-26T14:00:58;13.10;99.90
12015;DHT22;6066;48.138;16.402;2022-10-26T14:03:33;13.10;99.90
12015;DHT22;6066;48.138;16.402;2022-10-26T14:06:03;13.00;99.90
12015;DHT22;6066;48.138;16.402;2022-10-26T14:08:30;13.00;99.90
12015;DHT22;6066;48.138;16.402;2022-10-26T14:10:58;13.10;99.90
12015;DHT22;6066;48.138;16.402;2022-10-26T14:13:26;13.10;99.90
12015;DHT22;6066;48.138;16.402;2022-10-26T14:15:54;13.00;99.90
12015;DHT22;6066;48.138;16.402;2022-10-26T14:18:24;13.00;99.90
12015;DHT22;6066;48.138;16.402;2022-10-26T14:20:56;13.00;99.90
12015;DHT22;6066;48.138;16.402;2022-10-26T14:23:25;12.90;99.90
12015;DHT22;6066;48.138;16.402;2022-10-26T14:25:54;12.90;99.90
12015;DHT22;6066;48.138;16.402;2022-10-26T14:28:22;12.90;99.90
12015;DHT22;6066;48.138;16.402;2022-10-26T14:30:50;12.90;99.90
12015;DHT22;6066;48.138;16.402;2022-10-26T14:33:18;12.80;99.90
12015;DHT22;6066;48.138;16.402;2022-10-26T14:35:46;12.80;99.90
12015;DHT22;6066;48.138;16.402;2022-10-26T14:38:17;12.80;99.90
12015;DHT22;6066;48.138;16.402;2022-10-26T14:40:46;12.70;99.90
12015;DHT22;6066;48.138;16.402;2022-10-26T14:43:15;12.70;99.90
12015;DHT22;6066;48.138;16.402;2022-10-26T14:45:46;12.70;99.90
12015;DHT22;6066;48.138;16.402;2022-10-26T14:48:18;12.70;99.90
12015;DHT22;6066;48.138;16.402;2022-10-26T14:50:58;12.70;99.90
12015;DHT22;6066;48.138;16.402;2022-10-26T14:53:33;12.70;99.90
12015;DHT22;6066;48.138;16.402;2022-10-26T14:56:02;12.70;99.90
12015;DHT22;6066;48.138;16.402;2022-10-26T14:58:30;12.70;99.90
12015;DHT22;6066;48.138;16.402;2022-10-26T15:01:14;12.70;99.90
12015;DHT22;6066;48.138;16.402;2022-10-26T15:03:41;12.70;99.90
12015;DHT22;6066;48.138;16.402;2022-10-26T15:08:56;12.70;99.90
12015;DHT22;6066;48.138;16.402;2022-10-26T15:11:24;12.70;99.90
12015;DHT22;6066;48.138;16.402;2022-10-26T15:13:53;12.70;99.90
12015;DHT22;6066;48.138;16.402;2022-10-26T15:16:22;12.70;99.90
12015;DHT22;6066;48.138;16.402;2022-10-26T15:18:51;12.60;99.90
12015;DHT22;6066;48.138;16.402;2022-10-26T15:21:21;12.60;99.90
12015;DHT22;6066;48.138;16.402;2022-10-26T15:23:49;12.60;99.90
12015;DHT22;6066;48.138;16.402;2022-10-26T15:26:18;12.60;99.90
12015;DHT22;6066;48.138;16.402;2022-10-26T15:28:48;12.60;99.90
12015;DHT22;6066;48.138;16.402;2022-10-26T15:31:27;12.60;99.90
12015;DHT22;6066;48.138;16.402;2022-10-26T15:34:06;12.60;99.90
12015;DHT22;6066;48.138;16.402;2022-10-26T15:36:37;12.60;99.90
12015;DHT22;6066;48.138;16.402;2022-10-26T15:39:04;12.50;99.90
12015;DHT22;6066;48.138;16.402;2022-10-26T15:41:34;12.50;99.90
12015;DHT22;6066;48.138;16.402;2022-10-26T15:44:02;12.50;99.90
12015;DHT22;6066;48.138;16.402;2022-10-26T15:46:30;12.50;99.90
12015;DHT22;6066;48.138;16.402;2022-10-26T15:48:58;12.50;99.90
12015;DHT22;6066;48.138;16.402;2022-10-26T15:51:25;12.50;99.90
12015;DHT22;6066;48.138;16.402;2022-10-26T15:53:53;12.50;99.90
12015;DHT22;6066;48.138;16.402;2022-10-26T15:56:21;12.50;99.90
12015;DHT22;6066;48.138;16.402;2022-10-26T15:58:50;12.40;99.90
12015;DHT22;6066;48.138;16.402;2022-10-26T16:01:18;12.40;99.90
12015;DHT22;6066;48.138;16.402;2022-10-26T16:03:46;12.40;99.90
12015;DHT22;6066;48.138;16.402;2022-10-26T16:06:14;12.50;99.90
12015;DHT22;6066;48.138;16.402;2022-10-26T16:08:43;12.40;99.90
12015;DHT22;6066;48.138;16.402;2022-10-26T16:11:12;12.40;99.90
12015;DHT22;6066;48.138;16.402;2022-10-26T16:13:40;12.40;99.90
12015;DHT22;6066;48.138;16.402;2022-10-26T16:16:10;12.40;99.90
12015;DHT22;6066;48.138;16.402;2022-10-26T16:18:38;12.40;99.90